Dallas Center, Iowa
Current Conditions -  °F | °C
As of 9:55 AM on Friday 24 Oct 2014 (Local Time) from KPRO Reporting Station
Haze Haze  
Wind Chill: 60°   Ceiling: 400
Heat Index: 60°   Visibility: 2mi
Dew Point: 60°   Wind: 13mph
Humidity: 99%   Direction: 190°S
Pressure: 29.94"   Gusts: NA
Location:  41.68°N, 93.96°W
Report Text: KPRO 241455Z AUTO 19011KT 2SM BR OVC004 16/16 A2994 RMK AO2 T01560155
Loading
Personal Weather Stations






























Interactive Weather Map
Tropical Storm Tracking
New forecast layout! Learn more

10-Day Weather Forecast

Advertisements
Track Severe Weather on mobile